sensor_id;sensor_type;location;lat;lon;timestamp;temperature;humidity
39931;DHT22;26635;-35.248;149.138;2023-12-07T00:01:31;25.40;51.90
39931;DHT22;26635;-35.248;149.138;2023-12-07T00:04:04;25.80;52.80
39931;DHT22;26635;-35.248;149.138;2023-12-07T00:06:35;26.10;49.40
39931;DHT22;26635;-35.248;149.138;2023-12-07T00:09:05;26.30;44.70
39931;DHT22;26635;-35.248;149.138;2023-12-07T00:11:35;26.30;45.00
39931;DHT22;26635;-35.248;149.138;2023-12-07T00:14:06;26.40;46.60
39931;DHT22;26635;-35.248;149.138;2023-12-07T00:16:36;26.60;44.20
39931;DHT22;26635;-35.248;149.138;2023-12-07T00:19:07;26.70;45.90
39931;DHT22;26635;-35.248;149.138;2023-12-07T00:21:38;26.90;42.70
39931;DHT22;26635;-35.248;149.138;2023-12-07T00:24:09;27.10;43.00
39931;DHT22;26635;-35.248;149.138;2023-12-07T00:26:41;27.20;45.40
39931;DHT22;26635;-35.248;149.138;2023-12-07T00:29:14;27.50;45.90
39931;DHT22;26635;-35.248;149.138;2023-12-07T00:31:45;27.80;45.10
39931;DHT22;26635;-35.248;149.138;2023-12-07T00:34:15;28.00;44.90
39931;DHT22;26635;-35.248;149.138;2023-12-07T00:36:47;28.20;44.70
39931;DHT22;26635;-35.248;149.138;2023-12-07T00:39:18;28.40;43.90
39931;DHT22;26635;-35.248;149.138;2023-12-07T00:41:50;28.60;43.60
39931;DHT22;26635;-35.248;149.138;2023-12-07T00:44:21;28.80;42.90
39931;DHT22;26635;-35.248;149.138;2023-12-07T00:46:52;28.90;42.10
39931;DHT22;26635;-35.248;149.138;2023-12-07T00:49:23;28.90;42.60
39931;DHT22;26635;-35.248;149.138;2023-12-07T00:51:54;28.70;42.00
39931;DHT22;26635;-35.248;149.138;2023-12-07T00:54:25;28.40;41.90
39931;DHT22;26635;-35.248;149.138;2023-12-07T00:56:59;28.20;43.70
39931;DHT22;26635;-35.248;149.138;2023-12-07T00:59:30;28.00;42.80
39931;DHT22;26635;-35.248;149.138;2023-12-07T01:02:04;27.80;45.30
39931;DHT22;26635;-35.248;149.138;2023-12-07T01:04:38;27.50;43.90
39931;DHT22;26635;-35.248;149.138;2023-12-07T01:07:10;27.50;45.70
39931;DHT22;26635;-35.248;149.138;2023-12-07T01:09:42;27.40;45.00
39931;DHT22;26635;-35.248;149.138;2023-12-07T01:12:14;27.30;45.20
39931;DHT22;26635;-35.248;149.138;2023-12-07T01:14:47;27.10;45.60
39931;DHT22;26635;-35.248;149.138;2023-12-07T01:17:20;27.10;47.70
39931;DHT22;26635;-35.248;149.138;2023-12-07T01:19:51;27.00;48.00
39931;DHT22;26635;-35.248;149.138;2023-12-07T01:22:26;26.90;47.10
39931;DHT22;26635;-35.248;149.138;2023-12-07T01:24:57;26.80;46.20
39931;DHT22;26635;-35.248;149.138;2023-12-07T01:27:31;26.80;48.90
39931;DHT22;26635;-35.248;149.138;2023-12-07T01:30:02;27.20;48.10
39931;DHT22;26635;-35.248;149.138;2023-12-07T01:32:36;27.40;45.20
39931;DHT22;26635;-35.248;149.138;2023-12-07T01:35:07;27.50;47.80
39931;DHT22;26635;-35.248;149.138;2023-12-07T01:37:38;27.60;45.40
39931;DHT22;26635;-35.248;149.138;2023-12-07T01:40:09;27.60;46.60
39931;DHT22;26635;-35.248;149.138;2023-12-07T01:42:48;27.70;45.20
39931;DHT22;26635;-35.248;149.138;2023-12-07T01:45:20;27.70;43.90
39931;DHT22;26635;-35.248;149.138;2023-12-07T01:47:53;28.00;47.00
39931;DHT22;26635;-35.248;149.138;2023-12-07T01:50:24;28.20;42.60
39931;DHT22;26635;-35.248;149.138;2023-12-07T01:53:02;28.50;41.80
39931;DHT22;26635;-35.248;149.138;2023-12-07T01:55:36;28.90;37.20
39931;DHT22;26635;-35.248;149.138;2023-12-07T01:58:08;29.10;37.10
39931;DHT22;26635;-35.248;149.138;2023-12-07T02:00:41;29.10;37.40
39931;DHT22;26635;-35.248;149.138;2023-12-07T02:03:15;29.40;41.10
39931;DHT22;26635;-35.248;149.138;2023-12-07T02:05:48;29.40;37.40
39931;DHT22;26635;-35.248;149.138;2023-12-07T02:08:28;29.30;36.20
39931;DHT22;26635;-35.248;149.138;2023-12-07T02:11:01;29.30;34.20
39931;DHT22;26635;-35.248;149.138;2023-12-07T02:13:35;29.40;36.10
39931;DHT22;26635;-35.248;149.138;2023-12-07T02:16:18;29.50;35.90
39931;DHT22;26635;-35.248;149.138;2023-12-07T02:19:03;29.70;36.00
39931;DHT22;26635;-35.248;149.138;2023-12-07T02:21:51;30.00;38.50
39931;DHT22;26635;-35.248;149.138;2023-12-07T02:24:27;30.20;35.70
39931;DHT22;26635;-35.248;149.138;2023-12-07T02:27:00;30.20;35.00
39931;DHT22;26635;-35.248;149.138;2023-12-07T02:29:31;30.40;35.70
39931;DHT22;26635;-35.248;149.138;2023-12-07T02:32:03;30.70;38.00
39931;DHT22;26635;-35.248;149.138;2023-12-07T02:34:33;30.90;36.60
39931;DHT22;26635;-35.248;149.138;2023-12-07T02:37:06;31.10;34.40
39931;DHT22;26635;-35.248;149.138;2023-12-07T02:39:38;31.20;33.30
39931;DHT22;26635;-35.248;149.138;2023-12-07T02:42:12;31.20;36.60
39931;DHT22;26635;-35.248;149.138;2023-12-07T02:44:45;31.30;35.30
39931;DHT22;26635;-35.248;149.138;2023-12-07T02:47:17;31.20;34.00
39931;DHT22;26635;-35.248;149.138;2023-12-07T02:49:51;31.10;35.70
39931;DHT22;26635;-35.248;149.138;2023-12-07T02:52:23;30.90;33.10
39931;DHT22;26635;-35.248;149.138;2023-12-07T02:54:55;30.90;33.90
39931;DHT22;26635;-35.248;149.138;2023-12-07T02:57:26;30.70;33.50
39931;DHT22;26635;-35.248;149.138;2023-12-07T03:00:07;30.60;33.80
39931;DHT22;26635;-35.248;149.138;2023-12-07T03:02:41;30.70;35.20
39931;DHT22;26635;-35.248;149.138;2023-12-07T03:05:12;30.70;35.10
39931;DHT22;26635;-35.248;149.138;2023-12-07T03:07:46;30.90;36.90
39931;DHT22;26635;-35.248;149.138;2023-12-07T03:10:17;31.10;35.40
39931;DHT22;26635;-35.248;149.138;2023-12-07T03:12:50;31.30;35.30
39931;DHT22;26635;-35.248;149.138;2023-12-07T03:15:20;31.40;35.10
39931;DHT22;26635;-35.248;149.138;2023-12-07T03:17:52;31.50;36.00
39931;DHT22;26635;-35.248;149.138;2023-12-07T03:20:30;31.60;35.60
39931;DHT22;26635;-35.248;149.138;2023-12-07T03:23:01;31.50;34.00
39931;DHT22;26635;-35.248;149.138;2023-12-07T03:25:34;31.30;32.30
39931;DHT22;26635;-35.248;149.138;2023-12-07T03:28:06;31.00;34.00
39931;DHT22;26635;-35.248;149.138;2023-12-07T03:30:39;30.70;34.10
39931;DHT22;26635;-35.248;149.138;2023-12-07T03:33:10;30.40;36.00
39931;DHT22;26635;-35.248;149.138;2023-12-07T03:35:48;30.20;35.00
39931;DHT22;26635;-35.248;149.138;2023-12-07T03:38:19;29.90;34.20
39931;DHT22;26635;-35.248;149.138;2023-12-07T03:40:51;29.80;36.40
39931;DHT22;26635;-35.248;149.138;2023-12-07T03:43:25;29.90;34.90
39931;DHT22;26635;-35.248;149.138;2023-12-07T03:45:57;29.90;35.10
39931;DHT22;26635;-35.248;149.138;2023-12-07T03:48:28;29.80;35.40
39931;DHT22;26635;-35.248;149.138;2023-12-07T03:51:00;29.50;34.10
39931;DHT22;26635;-35.248;149.138;2023-12-07T03:53:31;29.30;33.70
39931;DHT22;26635;-35.248;149.138;2023-12-07T03:56:02;29.20;35.00
39931;DHT22;26635;-35.248;149.138;2023-12-07T03:58:33;29.10;34.20
39931;DHT22;26635;-35.248;149.138;2023-12-07T04:01:05;29.00;34.70
39931;DHT22;26635;-35.248;149.138;2023-12-07T04:03:37;28.90;35.20
39931;DHT22;26635;-35.248;149.138;2023-12-07T04:06:08;28.80;35.80
39931;DHT22;26635;-35.248;149.138;2023-12-07T04:08:43;28.80;35.60
39931;DHT22;26635;-35.248;149.138;2023-12-07T04:11:24;28.60;35.40
39931;DHT22;26635;-35.248;149.138;2023-12-07T04:13:55;28.50;37.10
39931;DHT22;26635;-35.248;149.138;2023-12-07T04:16:26;28.30;36.60
39931;DHT22;26635;-35.248;149.138;2023-12-07T04:18:58;28.10;35.20
39931;DHT22;26635;-35.248;149.138;2023-12-07T04:21:29;28.00;36.20
39931;DHT22;26635;-35.248;149.138;2023-12-07T04:24:00;27.80;36.30
39931;DHT22;26635;-35.248;149.138;2023-12-07T04:26:31;27.70;36.70
39931;DHT22;26635;-35.248;149.138;2023-12-07T04:29:01;27.50;36.80
39931;DHT22;26635;-35.248;149.138;2023-12-07T04:31:33;27.40;36.80
39931;DHT22;26635;-35.248;149.138;2023-12-07T04:34:05;27.40;37.60
39931;DHT22;26635;-35.248;149.138;2023-12-07T04:36:37;27.30;38.10
39931;DHT22;26635;-35.248;149.138;2023-12-07T04:39:08;27.20;38.30
39931;DHT22;26635;-35.248;149.138;2023-12-07T04:41:39;27.10;38.80
39931;DHT22;26635;-35.248;149.138;2023-12-07T04:44:10;27.10;38.80
39931;DHT22;26635;-35.248;149.138;2023-12-07T04:46:42;27.10;39.40
39931;DHT22;26635;-35.248;149.138;2023-12-07T04:49:15;27.10;40.70
39931;DHT22;26635;-35.248;149.138;2023-12-07T04:51:45;27.10;40.90
39931;DHT22;26635;-35.248;149.138;2023-12-07T04:54:16;27.10;39.60
39931;DHT22;26635;-35.248;149.138;2023-12-07T04:56:47;27.10;41.00
39931;DHT22;26635;-35.248;149.138;2023-12-07T04:59:18;27.10;41.30
39931;DHT22;26635;-35.248;149.138;2023-12-07T05:01:49;27.10;40.40
39931;DHT22;26635;-35.248;149.138;2023-12-07T05:04:20;27.10;42.30
39931;DHT22;26635;-35.248;149.138;2023-12-07T05:06:51;27.10;40.90
39931;DHT22;26635;-35.248;149.138;2023-12-07T05:09:23;27.10;40.90
39931;DHT22;26635;-35.248;149.138;2023-12-07T05:11:54;27.10;41.60
39931;DHT22;26635;-35.248;149.138;2023-12-07T05:14:24;27.10;39.30
39931;DHT22;26635;-35.248;149.138;2023-12-07T05:16:58;27.30;41.10
39931;DHT22;26635;-35.248;149.138;2023-12-07T05:19:29;27.40;41.80
39931;DHT22;26635;-35.248;149.138;2023-12-07T05:21:59;27.40;40.70
39931;DHT22;26635;-35.248;149.138;2023-12-07T05:24:30;27.40;42.40
39931;DHT22;26635;-35.248;149.138;2023-12-07T05:27:04;27.30;42.20
39931;DHT22;26635;-35.248;149.138;2023-12-07T05:29:34;27.10;40.90
39931;DHT22;26635;-35.248;149.138;2023-12-07T05:32:07;27.00;43.70
39931;DHT22;26635;-35.248;149.138;2023-12-07T05:34:37;26.90;42.80
39931;DHT22;26635;-35.248;149.138;2023-12-07T05:37:07;26.80;41.10
39931;DHT22;26635;-35.248;149.138;2023-12-07T05:39:38;26.70;43.80
39931;DHT22;26635;-35.248;149.138;2023-12-07T05:42:09;26.60;44.50
39931;DHT22;26635;-35.248;149.138;2023-12-07T05:44:40;26.50;44.20
39931;DHT22;26635;-35.248;149.138;2023-12-07T05:47:10;26.40;44.10
39931;DHT22;26635;-35.248;149.138;2023-12-07T05:49:41;26.30;43.30
39931;DHT22;26635;-35.248;149.138;2023-12-07T05:52:14;26.20;44.20
39931;DHT22;26635;-35.248;149.138;2023-12-07T05:54:45;26.20;43.20
39931;DHT22;26635;-35.248;149.138;2023-12-07T05:57:17;26.30;43.10
39931;DHT22;26635;-35.248;149.138;2023-12-07T05:59:48;26.30;44.20
39931;DHT22;26635;-35.248;149.138;2023-12-07T06:02:18;26.30;43.60
39931;DHT22;26635;-35.248;149.138;2023-12-07T06:04:49;26.30;44.40
39931;DHT22;26635;-35.248;149.138;2023-12-07T06:07:20;26.30;45.50
39931;DHT22;26635;-35.248;149.138;2023-12-07T06:09:51;26.30;45.40
39931;DHT22;26635;-35.248;149.138;2023-12-07T06:12:23;26.30;45.10
39931;DHT22;26635;-35.248;149.138;2023-12-07T06:14:58;26.30;44.90
39931;DHT22;26635;-35.248;149.138;2023-12-07T06:17:31;26.30;43.90
39931;DHT22;26635;-35.248;149.138;2023-12-07T06:20:06;26.30;45.10
39931;DHT22;26635;-35.248;149.138;2023-12-07T06:22:37;26.30;43.70
39931;DHT22;26635;-35.248;149.138;2023-12-07T06:25:07;26.30;44.40
39931;DHT22;26635;-35.248;149.138;2023-12-07T06:27:38;26.40;47.10
39931;DHT22;26635;-35.248;149.138;2023-12-07T06:30:09;26.50;47.60
39931;DHT22;26635;-35.248;149.138;2023-12-07T06:32:40;26.50;47.60
39931;DHT22;26635;-35.248;149.138;2023-12-07T06:35:13;26.50;46.60
39931;DHT22;26635;-35.248;149.138;2023-12-07T06:37:43;26.50;46.70
39931;DHT22;26635;-35.248;149.138;2023-12-07T06:40:14;26.60;47.20
39931;DHT22;26635;-35.248;149.138;2023-12-07T06:42:45;26.60;46.00
39931;DHT22;26635;-35.248;149.138;2023-12-07T06:45:16;26.60;45.40
39931;DHT22;26635;-35.248;149.138;2023-12-07T06:47:47;26.60;44.80
39931;DHT22;26635;-35.248;149.138;2023-12-07T06:50:17;26.60;45.30
39931;DHT22;26635;-35.248;149.138;2023-12-07T06:52:49;26.60;46.30
39931;DHT22;26635;-35.248;149.138;2023-12-07T06:55:20;26.60;46.20
39931;DHT22;26635;-35.248;149.138;2023-12-07T06:57:52;26.60;47.60
39931;DHT22;26635;-35.248;149.138;2023-12-07T07:00:22;26.50;45.80
39931;DHT22;26635;-35.248;149.138;2023-12-07T07:02:54;26.50;46.00
39931;DHT22;26635;-35.248;149.138;2023-12-07T07:05:25;26.40;46.10
39931;DHT22;26635;-35.248;149.138;2023-12-07T07:07:55;26.30;45.10
39931;DHT22;26635;-35.248;149.138;2023-12-07T07:10:25;26.30;46.10
39931;DHT22;26635;-35.248;149.138;2023-12-07T07:13:00;26.20;45.10
39931;DHT22;26635;-35.248;149.138;2023-12-07T07:15:54;26.10;45.80
39931;DHT22;26635;-35.248;149.138;2023-12-07T07:18:43;26.10;46.70
39931;DHT22;26635;-35.248;149.138;2023-12-07T07:21:13;26.10;46.20
39931;DHT22;26635;-35.248;149.138;2023-12-07T07:23:43;26.00;45.90
39931;DHT22;26635;-35.248;149.138;2023-12-07T07:26:14;26.00;46.60
39931;DHT22;26635;-35.248;149.138;2023-12-07T07:28:47;26.00;45.70
39931;DHT22;26635;-35.248;149.138;2023-12-07T07:31:17;25.90;45.00
39931;DHT22;26635;-35.248;149.138;2023-12-07T07:33:48;25.90;45.00
39931;DHT22;26635;-35.248;149.138;2023-12-07T07:36:29;26.00;44.90
39931;DHT22;26635;-35.248;149.138;2023-12-07T07:38:59;25.90;45.60
39931;DHT22;26635;-35.248;149.138;2023-12-07T07:41:30;25.90;46.80
39931;DHT22;26635;-35.248;149.138;2023-12-07T07:44:01;25.90;46.80
39931;DHT22;26635;-35.248;149.138;2023-12-07T07:46:32;25.80;47.90
39931;DHT22;26635;-35.248;149.138;2023-12-07T07:49:03;25.70;46.90
39931;DHT22;26635;-35.248;149.138;2023-12-07T07:51:36;25.70;46.80
39931;DHT22;26635;-35.248;149.138;2023-12-07T07:54:08;25.70;47.00
39931;DHT22;26635;-35.248;149.138;2023-12-07T07:56:40;25.60;47.80
39931;DHT22;26635;-35.248;149.138;2023-12-07T07:59:10;25.60;47.70
39931;DHT22;26635;-35.248;149.138;2023-12-07T08:01:41;25.50;47.60
39931;DHT22;26635;-35.248;149.138;2023-12-07T08:04:11;25.50;48.40
39931;DHT22;26635;-35.248;149.138;2023-12-07T08:06:41;25.50;47.60
39931;DHT22;26635;-35.248;149.138;2023-12-07T08:09:12;25.50;47.30
39931;DHT22;26635;-35.248;149.138;2023-12-07T08:11:42;25.50;47.00
39931;DHT22;26635;-35.248;149.138;2023-12-07T08:14:14;25.50;47.30
39931;DHT22;26635;-35.248;149.138;2023-12-07T08:16:47;25.50;46.50
39931;DHT22;26635;-35.248;149.138;2023-12-07T08:19:17;25.50;46.50
39931;DHT22;26635;-35.248;149.138;2023-12-07T08:21:50;25.60;46.90
39931;DHT22;26635;-35.248;149.138;2023-12-07T08:24:20;25.60;46.80
39931;DHT22;26635;-35.248;149.138;2023-12-07T08:26:50;25.60;46.80
39931;DHT22;26635;-35.248;149.138;2023-12-07T08:29:22;25.60;47.90
39931;DHT22;26635;-35.248;149.138;2023-12-07T08:31:52;25.60;47.10
39931;DHT22;26635;-35.248;149.138;2023-12-07T08:34:23;25.50;46.50
39931;DHT22;26635;-35.248;149.138;2023-12-07T08:36:54;25.50;46.60
39931;DHT22;26635;-35.248;149.138;2023-12-07T08:39:24;25.50;47.60
39931;DHT22;26635;-35.248;149.138;2023-12-07T08:41:57;25.50;47.50
39931;DHT22;26635;-35.248;149.138;2023-12-07T08:44:30;25.40;47.90
39931;DHT22;26635;-35.248;149.138;2023-12-07T08:47:00;25.40;48.00
39931;DHT22;26635;-35.248;149.138;2023-12-07T08:49:32;25.40;47.00
39931;DHT22;26635;-35.248;149.138;2023-12-07T08:52:03;25.30;48.70
39931;DHT22;26635;-35.248;149.138;2023-12-07T08:54:55;25.30;48.30
39931;DHT22;26635;-35.248;149.138;2023-12-07T08:57:26;25.20;48.20
39931;DHT22;26635;-35.248;149.138;2023-12-07T08:59:57;25.20;48.90
39931;DHT22;26635;-35.248;149.138;2023-12-07T09:02:29;25.20;50.00
39931;DHT22;26635;-35.248;149.138;2023-12-07T09:05:15;25.10;50.30
39931;DHT22;26635;-35.248;149.138;2023-12-07T09:07:45;25.00;50.00
39931;DHT22;26635;-35.248;149.138;2023-12-07T09:10:16;25.00;49.80
39931;DHT22;26635;-35.248;149.138;2023-12-07T09:12:48;24.90;50.30
39931;DHT22;26635;-35.248;149.138;2023-12-07T09:15:21;24.90;50.00
39931;DHT22;26635;-35.248;149.138;2023-12-07T09:17:54;24.80;50.10
39931;DHT22;26635;-35.248;149.138;2023-12-07T09:20:26;24.80;49.90
39931;DHT22;26635;-35.248;149.138;2023-12-07T09:22:58;24.80;49.80
39931;DHT22;26635;-35.248;149.138;2023-12-07T09:25:29;24.80;49.90
39931;DHT22;26635;-35.248;149.138;2023-12-07T09:28:01;24.70;50.30
39931;DHT22;26635;-35.248;149.138;2023-12-07T09:30:32;24.70;51.40
39931;DHT22;26635;-35.248;149.138;2023-12-07T09:33:03;24.60;51.10
39931;DHT22;26635;-35.248;149.138;2023-12-07T09:35:36;24.60;51.60
39931;DHT22;26635;-35.248;149.138;2023-12-07T09:38:09;24.50;51.80
39931;DHT22;26635;-35.248;149.138;2023-12-07T09:40:40;24.50;51.70
39931;DHT22;26635;-35.248;149.138;2023-12-07T09:43:10;24.50;51.60
39931;DHT22;26635;-35.248;149.138;2023-12-07T09:45:41;24.40;52.90
39931;DHT22;26635;-35.248;149.138;2023-12-07T09:48:17;24.30;52.00
39931;DHT22;26635;-35.248;149.138;2023-12-07T09:50:48;24.30;52.90
39931;DHT22;26635;-35.248;149.138;2023-12-07T09:53:20;24.20;53.20
39931;DHT22;26635;-35.248;149.138;2023-12-07T09:55:51;24.20;54.00
39931;DHT22;26635;-35.248;149.138;2023-12-07T09:58:22;24.20;54.00
39931;DHT22;26635;-35.248;149.138;2023-12-07T10:01:05;24.10;52.90
39931;DHT22;26635;-35.248;149.138;2023-12-07T10:03:37;24.10;54.60
39931;DHT22;26635;-35.248;149.138;2023-12-07T10:06:10;24.00;53.90
39931;DHT22;26635;-35.248;149.138;2023-12-07T10:08:41;24.10;53.40
39931;DHT22;26635;-35.248;149.138;2023-12-07T10:11:15;24.10;54.20
39931;DHT22;26635;-35.248;149.138;2023-12-07T10:13:48;24.10;54.20
39931;DHT22;26635;-35.248;149.138;2023-12-07T10:16:20;24.00;53.80
39931;DHT22;26635;-35.248;149.138;2023-12-07T10:18:51;24.00;54.60
39931;DHT22;26635;-35.248;149.138;2023-12-07T10:21:32;24.00;53.90
39931;DHT22;26635;-35.248;149.138;2023-12-07T10:24:03;24.00;54.40
39931;DHT22;26635;-35.248;149.138;2023-12-07T10:26:34;23.90;53.80
39931;DHT22;26635;-35.248;149.138;2023-12-07T10:29:12;23.90;54.50
39931;DHT22;26635;-35.248;149.138;2023-12-07T10:32:01;23.90;53.60
39931;DHT22;26635;-35.248;149.138;2023-12-07T10:34:34;23.90;53.80
39931;DHT22;26635;-35.248;149.138;2023-12-07T10:37:08;23.90;52.90
39931;DHT22;26635;-35.248;149.138;2023-12-07T10:39:40;23.90;53.10
39931;DHT22;26635;-35.248;149.138;2023-12-07T10:42:12;23.90;53.00
39931;DHT22;26635;-35.248;149.138;2023-12-07T10:44:48;23.90;52.80
39931;DHT22;26635;-35.248;149.138;2023-12-07T10:47:22;23.90;53.10
39931;DHT22;26635;-35.248;149.138;2023-12-07T10:49:57;23.80;53.30
39931;DHT22;26635;-35.248;149.138;2023-12-07T10:52:32;23.80;53.30
39931;DHT22;26635;-35.248;149.138;2023-12-07T10:55:21;23.80;53.20
39931;DHT22;26635;-35.248;149.138;2023-12-07T10:57:56;23.80;53.80
39931;DHT22;26635;-35.248;149.138;2023-12-07T11:00:27;23.80;54.80
39931;DHT22;26635;-35.248;149.138;2023-12-07T11:03:15;23.70;53.90
39931;DHT22;26635;-35.248;149.138;2023-12-07T11:05:52;23.70;53.50
39931;DHT22;26635;-35.248;149.138;2023-12-07T11:08:49;23.70;53.70
39931;DHT22;26635;-35.248;149.138;2023-12-07T11:12:11;23.60;54.00
39931;DHT22;26635;-35.248;149.138;2023-12-07T11:14:23;23.60;54.40
39931;DHT22;26635;-35.248;149.138;2023-12-07T11:16:55;23.60;54.80
39931;DHT22;26635;-35.248;149.138;2023-12-07T11:22:11;23.50;56.60
39931;DHT22;26635;-35.248;149.138;2023-12-07T11:25:08;23.50;56.70
39931;DHT22;26635;-35.248;149.138;2023-12-07T11:27:40;23.50;56.50
39931;DHT22;26635;-35.248;149.138;2023-12-07T11:30:11;23.40;55.90
39931;DHT22;26635;-35.248;149.138;2023-12-07T11:32:43;23.40;55.60
39931;DHT22;26635;-35.248;149.138;2023-12-07T11:35:15;23.40;55.50
39931;DHT22;26635;-35.248;149.138;2023-12-07T11:40:42;23.30;60.70
39931;DHT22;26635;-35.248;149.138;2023-12-07T11:43:42;23.20;61.60
39931;DHT22;26635;-35.248;149.138;2023-12-07T11:46:17;23.10;60.30
39931;DHT22;26635;-35.248;149.138;2023-12-07T11:48:49;23.10;60.60
39931;DHT22;26635;-35.248;149.138;2023-12-07T11:51:21;23.10;60.50
39931;DHT22;26635;-35.248;149.138;2023-12-07T11:53:52;23.00;61.10
39931;DHT22;26635;-35.248;149.138;2023-12-07T11:56:24;23.00;61.50
39931;DHT22;26635;-35.248;149.138;2023-12-07T11:58:55;23.00;61.90
39931;DHT22;26635;-35.248;149.138;2023-12-07T12:01:29;23.00;62.40
39931;DHT22;26635;-35.248;149.138;2023-12-07T12:04:00;22.90;63.70
39931;DHT22;26635;-35.248;149.138;2023-12-07T12:06:32;22.90;63.00
39931;DHT22;26635;-35.248;149.138;2023-12-07T12:09:04;22.90;64.40
39931;DHT22;26635;-35.248;149.138;2023-12-07T12:11:47;22.80;60.70
39931;DHT22;26635;-35.248;149.138;2023-12-07T12:14:20;22.70;60.90
39931;DHT22;26635;-35.248;149.138;2023-12-07T12:16:52;22.70;62.00
39931;DHT22;26635;-35.248;149.138;2023-12-07T12:19:26;22.70;62.00
39931;DHT22;26635;-35.248;149.138;2023-12-07T12:22:02;22.70;64.70
39931;DHT22;26635;-35.248;149.138;2023-12-07T12:24:37;22.60;64.10
39931;DHT22;26635;-35.248;149.138;2023-12-07T12:27:09;22.60;63.30
39931;DHT22;26635;-35.248;149.138;2023-12-07T12:29:41;22.60;62.60
39931;DHT22;26635;-35.248;149.138;2023-12-07T12:32:12;22.60;63.70
39931;DHT22;26635;-35.248;149.138;2023-12-07T12:34:45;22.60;62.00
39931;DHT22;26635;-35.248;149.138;2023-12-07T12:37:17;22.60;63.20
39931;DHT22;26635;-35.248;149.138;2023-12-07T12:39:51;22.60;63.50
39931;DHT22;26635;-35.248;149.138;2023-12-07T12:42:23;22.60;63.40
39931;DHT22;26635;-35.248;149.138;2023-12-07T12:44:57;22.60;62.90
39931;DHT22;26635;-35.248;149.138;2023-12-07T12:47:28;22.60;62.00
39931;DHT22;26635;-35.248;149.138;2023-12-07T12:49:59;22.60;62.00
39931;DHT22;26635;-35.248;149.138;2023-12-07T12:52:32;22.50;61.70
39931;DHT22;26635;-35.248;149.138;2023-12-07T12:55:08;22.50;61.20
39931;DHT22;26635;-35.248;149.138;2023-12-07T12:57:41;22.50;60.80
39931;DHT22;26635;-35.248;149.138;2023-12-07T13:00:14;22.60;62.40
39931;DHT22;26635;-35.248;149.138;2023-12-07T13:02:46;22.60;61.50
39931;DHT22;26635;-35.248;149.138;2023-12-07T13:05:19;22.50;61.20
39931;DHT22;26635;-35.248;149.138;2023-12-07T13:07:50;22.50;61.20
39931;DHT22;26635;-35.248;149.138;2023-12-07T13:10:41;22.50;60.70
39931;DHT22;26635;-35.248;149.138;2023-12-07T13:13:13;22.50;60.70
39931;DHT22;26635;-35.248;149.138;2023-12-07T13:15:45;22.40;61.30
39931;DHT22;26635;-35.248;149.138;2023-12-07T13:18:17;22.40;62.30
39931;DHT22;26635;-35.248;149.138;2023-12-07T13:20:50;22.30;61.80
39931;DHT22;26635;-35.248;149.138;2023-12-07T13:23:23;22.30;63.00
39931;DHT22;26635;-35.248;149.138;2023-12-07T13:25:55;22.30;62.90
39931;DHT22;26635;-35.248;149.138;2023-12-07T13:28:29;22.20;63.70
39931;DHT22;26635;-35.248;149.138;2023-12-07T13:31:04;22.20;65.80
39931;DHT22;26635;-35.248;149.138;2023-12-07T13:33:36;22.20;64.00
39931;DHT22;26635;-35.248;149.138;2023-12-07T13:36:25;22.20;62.60
39931;DHT22;26635;-35.248;149.138;2023-12-07T13:38:59;22.20;62.90
39931;DHT22;26635;-35.248;149.138;2023-12-07T13:41:34;22.10;63.30
39931;DHT22;26635;-35.248;149.138;2023-12-07T13:44:06;22.10;63.40
39931;DHT22;26635;-35.248;149.138;2023-12-07T13:46:44;22.10;63.50
39931;DHT22;26635;-35.248;149.138;2023-12-07T13:49:16;22.00;63.00
39931;DHT22;26635;-35.248;149.138;2023-12-07T13:51:58;22.00;65.60
39931;DHT22;26635;-35.248;149.138;2023-12-07T13:54:39;22.00;65.00
39931;DHT22;26635;-35.248;149.138;2023-12-07T13:57:21;22.00;64.00
39931;DHT22;26635;-35.248;149.138;2023-12-07T13:59:55;22.00;63.90
39931;DHT22;26635;-35.248;149.138;2023-12-07T14:02:28;22.00;64.80
39931;DHT22;26635;-35.248;149.138;2023-12-07T14:04:59;21.90;64.70
39931;DHT22;26635;-35.248;149.138;2023-12-07T14:07:31;21.90;64.50
39931;DHT22;26635;-35.248;149.138;2023-12-07T14:10:04;21.80;65.20
39931;DHT22;26635;-35.248;149.138;2023-12-07T14:12:34;21.70;65.30
39931;DHT22;26635;-35.248;149.138;2023-12-07T14:15:05;21.70;66.60
39931;DHT22;26635;-35.248;149.138;2023-12-07T14:17:38;21.80;68.40
39931;DHT22;26635;-35.248;149.138;2023-12-07T14:20:20;21.70;67.20
39931;DHT22;26635;-35.248;149.138;2023-12-07T14:23:14;21.70;66.40
39931;DHT22;26635;-35.248;149.138;2023-12-07T14:25:45;21.70;67.60
39931;DHT22;26635;-35.248;149.138;2023-12-07T14:28:19;21.70;67.50
39931;DHT22;26635;-35.248;149.138;2023-12-07T14:30:52;21.70;68.00
39931;DHT22;26635;-35.248;149.138;2023-12-07T14:33:27;21.70;68.30
39931;DHT22;26635;-35.248;149.138;2023-12-07T14:36:00;21.70;67.80
39931;DHT22;26635;-35.248;149.138;2023-12-07T14:38:31;21.70;66.60
39931;DHT22;26635;-35.248;149.138;2023-12-07T14:41:03;21.60;65.90
39931;DHT22;26635;-35.248;149.138;2023-12-07T14:43:34;21.60;65.90
39931;DHT22;26635;-35.248;149.138;2023-12-07T14:46:07;21.60;66.20
39931;DHT22;26635;-35.248;149.138;2023-12-07T14:48:39;21.60;68.30
39931;DHT22;26635;-35.248;149.138;2023-12-07T14:51:11;21.60;68.40
39931;DHT22;26635;-35.248;149.138;2023-12-07T14:53:48;21.60;67.80
39931;DHT22;26635;-35.248;149.138;2023-12-07T14:56:20;21.60;68.80
39931;DHT22;26635;-35.248;149.138;2023-12-07T14:58:53;21.60;68.70
39931;DHT22;26635;-35.248;149.138;2023-12-07T15:01:25;21.60;69.00
39931;DHT22;26635;-35.248;149.138;2023-12-07T15:03:58;21.50;69.20
39931;DHT22;26635;-35.248;149.138;2023-12-07T15:06:31;21.50;68.70
39931;DHT22;26635;-35.248;149.138;2023-12-07T15:09:04;21.50;68.70
39931;DHT22;26635;-35.248;149.138;2023-12-07T15:11:39;21.50;70.30
39931;DHT22;26635;-35.248;149.138;2023-12-07T15:14:10;21.50;70.90
39931;DHT22;26635;-35.248;149.138;2023-12-07T15:17:00;21.50;70.00
39931;DHT22;26635;-35.248;149.138;2023-12-07T15:19:34;21.50;69.40
39931;DHT22;26635;-35.248;149.138;2023-12-07T15:22:08;21.50;69.30
39931;DHT22;26635;-35.248;149.138;2023-12-07T15:24:38;21.50;68.70
39931;DHT22;26635;-35.248;149.138;2023-12-07T15:27:10;21.50;68.00
39931;DHT22;26635;-35.248;149.138;2023-12-07T15:29:41;21.50;68.80